sensor_id;sensor_type;location;lat;lon;timestamp;temperature;humidity
48604;DHT22;32708;51.212;6.788;2023-06-14T00:00:20;21.50;1.00
48604;DHT22;32708;51.212;6.788;2023-06-14T00:02:47;21.60;1.00
48604;DHT22;32708;51.212;6.788;2023-06-14T00:05:13;21.60;1.00
48604;DHT22;32708;51.212;6.788;2023-06-14T00:07:41;21.50;1.00
48604;DHT22;32708;51.212;6.788;2023-06-14T00:10:11;21.50;1.00
48604;DHT22;32708;51.212;6.788;2023-06-14T00:12:38;21.50;1.00
48604;DHT22;32708;51.212;6.788;2023-06-14T00:15:05;21.60;1.00
48604;DHT22;32708;51.212;6.788;2023-06-14T00:17:32;21.40;1.00
48604;DHT22;32708;51.212;6.788;2023-06-14T00:19:59;21.40;1.00
48604;DHT22;32708;51.212;6.788;2023-06-14T00:22:26;21.40;1.00
48604;DHT22;32708;51.212;6.788;2023-06-14T00:24:54;21.40;1.00
48604;DHT22;32708;51.212;6.788;2023-06-14T00:27:20;21.30;1.00
48604;DHT22;32708;51.212;6.788;2023-06-14T00:29:46;21.40;1.00
48604;DHT22;32708;51.212;6.788;2023-06-14T00:32:12;21.40;1.00
48604;DHT22;32708;51.212;6.788;2023-06-14T00:34:39;21.40;1.00
48604;DHT22;32708;51.212;6.788;2023-06-14T00:37:07;21.40;1.00
48604;DHT22;32708;51.212;6.788;2023-06-14T00:39:34;21.40;1.00
48604;DHT22;32708;51.212;6.788;2023-06-14T00:42:01;21.30;1.00
48604;DHT22;32708;51.212;6.788;2023-06-14T00:44:27;21.30;1.00
48604;DHT22;32708;51.212;6.788;2023-06-14T00:46:53;21.20;1.00
48604;DHT22;32708;51.212;6.788;2023-06-14T00:49:23;21.20;1.00
48604;DHT22;32708;51.212;6.788;2023-06-14T00:51:50;21.20;1.00
48604;DHT22;32708;51.212;6.788;2023-06-14T00:54:18;21.00;1.00
48604;DHT22;32708;51.212;6.788;2023-06-14T00:56:44;21.00;1.00
48604;DHT22;32708;51.212;6.788;2023-06-14T00:59:11;21.00;1.00
48604;DHT22;32708;51.212;6.788;2023-06-14T01:01:38;21.00;1.00
48604;DHT22;32708;51.212;6.788;2023-06-14T01:04:08;21.00;1.00
48604;DHT22;32708;51.212;6.788;2023-06-14T01:06:49;20.90;1.00
48604;DHT22;32708;51.212;6.788;2023-06-14T01:09:29;20.80;1.00
48604;DHT22;32708;51.212;6.788;2023-06-14T01:12:18;20.70;1.00
48604;DHT22;32708;51.212;6.788;2023-06-14T01:14:51;20.80;1.00
48604;DHT22;32708;51.212;6.788;2023-06-14T01:17:21;20.80;1.00
48604;DHT22;32708;51.212;6.788;2023-06-14T01:19:49;20.70;1.00
48604;DHT22;32708;51.212;6.788;2023-06-14T01:22:26;20.70;1.00
48604;DHT22;32708;51.212;6.788;2023-06-14T01:24:55;20.60;1.00
48604;DHT22;32708;51.212;6.788;2023-06-14T01:27:26;20.50;1.00
48604;DHT22;32708;51.212;6.788;2023-06-14T01:29:56;20.50;1.00
48604;DHT22;32708;51.212;6.788;2023-06-14T01:32:29;20.40;1.00
48604;DHT22;32708;51.212;6.788;2023-06-14T01:34:56;20.50;1.00
48604;DHT22;32708;51.212;6.788;2023-06-14T01:37:22;20.30;1.00
48604;DHT22;32708;51.212;6.788;2023-06-14T01:39:50;20.40;1.00
48604;DHT22;32708;51.212;6.788;2023-06-14T01:42:19;20.30;1.00
48604;DHT22;32708;51.212;6.788;2023-06-14T01:44:48;20.20;1.00
48604;DHT22;32708;51.212;6.788;2023-06-14T01:47:16;20.00;1.00
48604;DHT22;32708;51.212;6.788;2023-06-14T01:49:42;20.10;1.00
48604;DHT22;32708;51.212;6.788;2023-06-14T01:52:08;20.10;1.00
48604;DHT22;32708;51.212;6.788;2023-06-14T01:54:36;20.20;1.00
48604;DHT22;32708;51.212;6.788;2023-06-14T01:57:08;20.10;1.00
48604;DHT22;32708;51.212;6.788;2023-06-14T01:59:34;20.10;1.00
48604;DHT22;32708;51.212;6.788;2023-06-14T02:02:03;20.00;1.00
48604;DHT22;32708;51.212;6.788;2023-06-14T02:04:31;20.00;1.00
48604;DHT22;32708;51.212;6.788;2023-06-14T02:06:58;20.00;1.00
48604;DHT22;32708;51.212;6.788;2023-06-14T02:09:24;19.90;1.00
48604;DHT22;32708;51.212;6.788;2023-06-14T02:11:53;20.00;1.00
48604;DHT22;32708;51.212;6.788;2023-06-14T02:14:20;19.90;1.00
48604;DHT22;32708;51.212;6.788;2023-06-14T02:16:46;19.90;1.00
48604;DHT22;32708;51.212;6.788;2023-06-14T02:19:16;19.80;1.00
48604;DHT22;32708;51.212;6.788;2023-06-14T02:21:43;19.90;1.00
48604;DHT22;32708;51.212;6.788;2023-06-14T02:24:12;19.80;1.00
48604;DHT22;32708;51.212;6.788;2023-06-14T02:26:39;19.90;1.00
48604;DHT22;32708;51.212;6.788;2023-06-14T02:29:07;19.80;1.00
48604;DHT22;32708;51.212;6.788;2023-06-14T02:31:38;19.70;1.00
48604;DHT22;32708;51.212;6.788;2023-06-14T02:34:04;19.60;1.00
48604;DHT22;32708;51.212;6.788;2023-06-14T02:36:31;19.60;1.00
48604;DHT22;32708;51.212;6.788;2023-06-14T02:38:59;19.60;1.00
48604;DHT22;32708;51.212;6.788;2023-06-14T02:41:26;19.60;1.00
48604;DHT22;32708;51.212;6.788;2023-06-14T02:43:53;19.50;1.00
48604;DHT22;32708;51.212;6.788;2023-06-14T02:46:19;19.50;1.00
48604;DHT22;32708;51.212;6.788;2023-06-14T02:48:48;19.60;1.00
48604;DHT22;32708;51.212;6.788;2023-06-14T02:51:14;19.50;1.00
48604;DHT22;32708;51.212;6.788;2023-06-14T02:53:40;19.50;1.00
48604;DHT22;32708;51.212;6.788;2023-06-14T02:56:06;19.50;1.00
48604;DHT22;32708;51.212;6.788;2023-06-14T02:58:32;19.60;1.00
48604;DHT22;32708;51.212;6.788;2023-06-14T03:00:59;19.50;1.00
48604;DHT22;32708;51.212;6.788;2023-06-14T03:03:29;19.50;1.00
48604;DHT22;32708;51.212;6.788;2023-06-14T03:05:56;19.50;1.00
48604;DHT22;32708;51.212;6.788;2023-06-14T03:08:26;19.40;1.00
48604;DHT22;32708;51.212;6.788;2023-06-14T03:10:56;19.40;1.00
48604;DHT22;32708;51.212;6.788;2023-06-14T03:13:24;19.50;1.00
48604;DHT22;32708;51.212;6.788;2023-06-14T03:15:51;19.50;1.00
48604;DHT22;32708;51.212;6.788;2023-06-14T03:18:19;19.30;1.00
48604;DHT22;32708;51.212;6.788;2023-06-14T03:20:50;19.50;1.00
48604;DHT22;32708;51.212;6.788;2023-06-14T03:23:17;19.40;1.00
48604;DHT22;32708;51.212;6.788;2023-06-14T03:25:44;19.30;1.00
48604;DHT22;32708;51.212;6.788;2023-06-14T03:28:12;19.20;1.00
48604;DHT22;32708;51.212;6.788;2023-06-14T03:30:38;19.30;1.00
48604;DHT22;32708;51.212;6.788;2023-06-14T03:33:05;19.30;1.00
48604;DHT22;32708;51.212;6.788;2023-06-14T03:35:34;19.10;1.00
48604;DHT22;32708;51.212;6.788;2023-06-14T03:38:01;19.20;1.00
48604;DHT22;32708;51.212;6.788;2023-06-14T03:40:28;19.20;1.00
48604;DHT22;32708;51.212;6.788;2023-06-14T03:43:00;19.30;1.00
48604;DHT22;32708;51.212;6.788;2023-06-14T03:45:27;19.50;1.00
48604;DHT22;32708;51.212;6.788;2023-06-14T03:47:54;19.60;1.00
48604;DHT22;32708;51.212;6.788;2023-06-14T03:50:20;19.80;1.00
48604;DHT22;32708;51.212;6.788;2023-06-14T03:52:48;20.10;1.00
48604;DHT22;32708;51.212;6.788;2023-06-14T03:55:15;20.10;1.00
48604;DHT22;32708;51.212;6.788;2023-06-14T03:57:42;20.30;1.00
48604;DHT22;32708;51.212;6.788;2023-06-14T04:00:12;20.80;1.00
48604;DHT22;32708;51.212;6.788;2023-06-14T04:02:42;20.90;1.00
48604;DHT22;32708;51.212;6.788;2023-06-14T04:05:10;21.10;1.00
48604;DHT22;32708;51.212;6.788;2023-06-14T04:07:40;20.90;1.00
48604;DHT22;32708;51.212;6.788;2023-06-14T04:10:12;21.10;1.00
48604;DHT22;32708;51.212;6.788;2023-06-14T04:12:39;21.50;1.00
48604;DHT22;32708;51.212;6.788;2023-06-14T04:15:06;21.50;1.00
48604;DHT22;32708;51.212;6.788;2023-06-14T04:17:35;21.40;1.00
48604;DHT22;32708;51.212;6.788;2023-06-14T04:20:03;21.50;1.00
48604;DHT22;32708;51.212;6.788;2023-06-14T04:22:32;21.60;1.00
48604;DHT22;32708;51.212;6.788;2023-06-14T04:24:59;21.80;1.00
48604;DHT22;32708;51.212;6.788;2023-06-14T04:27:27;22.00;1.00
48604;DHT22;32708;51.212;6.788;2023-06-14T04:29:55;22.20;1.00
48604;DHT22;32708;51.212;6.788;2023-06-14T04:32:31;22.30;1.00
48604;DHT22;32708;51.212;6.788;2023-06-14T04:35:08;21.80;1.00
48604;DHT22;32708;51.212;6.788;2023-06-14T04:37:36;22.10;1.00
48604;DHT22;32708;51.212;6.788;2023-06-14T04:40:07;22.20;1.00
48604;DHT22;32708;51.212;6.788;2023-06-14T04:42:35;21.70;1.00
48604;DHT22;32708;51.212;6.788;2023-06-14T04:45:05;21.90;1.00
48604;DHT22;32708;51.212;6.788;2023-06-14T04:47:33;21.50;1.00
48604;DHT22;32708;51.212;6.788;2023-06-14T04:50:00;21.70;1.00
48604;DHT22;32708;51.212;6.788;2023-06-14T04:52:29;22.20;1.00
48604;DHT22;32708;51.212;6.788;2023-06-14T04:54:56;21.70;1.00
48604;DHT22;32708;51.212;6.788;2023-06-14T04:57:24;21.50;1.00
48604;DHT22;32708;51.212;6.788;2023-06-14T04:59:54;22.10;1.00
48604;DHT22;32708;51.212;6.788;2023-06-14T05:02:25;22.30;1.00
48604;DHT22;32708;51.212;6.788;2023-06-14T05:04:54;22.00;1.00
48604;DHT22;32708;51.212;6.788;2023-06-14T05:07:22;22.80;1.00
48604;DHT22;32708;51.212;6.788;2023-06-14T05:09:51;23.10;1.00
48604;DHT22;32708;51.212;6.788;2023-06-14T05:12:17;23.00;1.00
48604;DHT22;32708;51.212;6.788;2023-06-14T05:14:45;23.50;1.00
48604;DHT22;32708;51.212;6.788;2023-06-14T05:17:11;23.40;1.00
48604;DHT22;32708;51.212;6.788;2023-06-14T05:19:37;23.80;1.00
48604;DHT22;32708;51.212;6.788;2023-06-14T05:22:03;23.10;1.00
48604;DHT22;32708;51.212;6.788;2023-06-14T05:24:29;23.10;1.00
48604;DHT22;32708;51.212;6.788;2023-06-14T05:26:57;22.40;1.00
48604;DHT22;32708;51.212;6.788;2023-06-14T05:29:23;21.50;1.00
48604;DHT22;32708;51.212;6.788;2023-06-14T05:31:50;21.40;1.00
48604;DHT22;32708;51.212;6.788;2023-06-14T05:34:16;21.90;1.00
48604;DHT22;32708;51.212;6.788;2023-06-14T05:36:42;21.70;1.00
48604;DHT22;32708;51.212;6.788;2023-06-14T05:39:08;21.80;1.00
48604;DHT22;32708;51.212;6.788;2023-06-14T05:41:35;22.70;1.00
48604;DHT22;32708;51.212;6.788;2023-06-14T05:44:01;23.30;1.00
48604;DHT22;32708;51.212;6.788;2023-06-14T05:46:27;23.20;1.00
48604;DHT22;32708;51.212;6.788;2023-06-14T05:48:55;23.20;1.00
48604;DHT22;32708;51.212;6.788;2023-06-14T05:51:22;23.00;1.00
48604;DHT22;32708;51.212;6.788;2023-06-14T05:53:51;23.50;1.00
48604;DHT22;32708;51.212;6.788;2023-06-14T05:56:17;23.80;1.00
48604;DHT22;32708;51.212;6.788;2023-06-14T05:58:45;23.10;1.00
48604;DHT22;32708;51.212;6.788;2023-06-14T06:01:11;23.10;1.00
48604;DHT22;32708;51.212;6.788;2023-06-14T06:03:40;23.30;1.00
48604;DHT22;32708;51.212;6.788;2023-06-14T06:06:07;22.60;1.00
48604;DHT22;32708;51.212;6.788;2023-06-14T06:08:33;22.40;1.00
48604;DHT22;32708;51.212;6.788;2023-06-14T06:11:00;22.50;1.00
48604;DHT22;32708;51.212;6.788;2023-06-14T06:13:27;22.80;1.00
48604;DHT22;32708;51.212;6.788;2023-06-14T06:15:53;23.00;1.00
48604;DHT22;32708;51.212;6.788;2023-06-14T06:18:19;22.90;1.00
48604;DHT22;32708;51.212;6.788;2023-06-14T06:20:45;23.20;1.00
48604;DHT22;32708;51.212;6.788;2023-06-14T06:23:12;23.50;1.00
48604;DHT22;32708;51.212;6.788;2023-06-14T06:25:39;24.30;1.00
48604;DHT22;32708;51.212;6.788;2023-06-14T06:28:05;24.30;1.00
48604;DHT22;32708;51.212;6.788;2023-06-14T06:30:31;23.50;1.00
48604;DHT22;32708;51.212;6.788;2023-06-14T06:32:57;23.60;1.00
48604;DHT22;32708;51.212;6.788;2023-06-14T06:35:24;24.40;1.00
48604;DHT22;32708;51.212;6.788;2023-06-14T06:37:50;24.80;1.00
48604;DHT22;32708;51.212;6.788;2023-06-14T06:40:16;24.30;1.00
48604;DHT22;32708;51.212;6.788;2023-06-14T06:42:42;24.80;1.00
48604;DHT22;32708;51.212;6.788;2023-06-14T06:45:12;24.30;1.00
48604;DHT22;32708;51.212;6.788;2023-06-14T06:47:38;24.00;1.00
48604;DHT22;32708;51.212;6.788;2023-06-14T06:50:04;24.90;1.00
48604;DHT22;32708;51.212;6.788;2023-06-14T06:55:27;24.30;1.00
48604;DHT22;32708;51.212;6.788;2023-06-14T06:57:53;24.20;1.00
48604;DHT22;32708;51.212;6.788;2023-06-14T07:00:20;24.50;1.00
48604;DHT22;32708;51.212;6.788;2023-06-14T07:02:47;24.60;1.00
48604;DHT22;32708;51.212;6.788;2023-06-14T07:05:13;24.80;1.00
48604;DHT22;32708;51.212;6.788;2023-06-14T07:07:39;24.80;1.00
48604;DHT22;32708;51.212;6.788;2023-06-14T07:10:06;24.40;1.00
48604;DHT22;32708;51.212;6.788;2023-06-14T07:12:33;24.40;1.00
48604;DHT22;32708;51.212;6.788;2023-06-14T07:15:08;24.60;1.00
48604;DHT22;32708;51.212;6.788;2023-06-14T07:17:35;24.50;1.00
48604;DHT22;32708;51.212;6.788;2023-06-14T07:20:02;24.00;1.00
48604;DHT22;32708;51.212;6.788;2023-06-14T07:22:33;24.20;1.00
48604;DHT22;32708;51.212;6.788;2023-06-14T07:24:59;24.20;1.00
48604;DHT22;32708;51.212;6.788;2023-06-14T07:27:25;24.40;1.00
48604;DHT22;32708;51.212;6.788;2023-06-14T07:29:51;24.10;1.00
48604;DHT22;32708;51.212;6.788;2023-06-14T07:32:17;24.30;1.00
48604;DHT22;32708;51.212;6.788;2023-06-14T07:34:43;24.20;1.00
48604;DHT22;32708;51.212;6.788;2023-06-14T07:37:10;24.60;1.00
48604;DHT22;32708;51.212;6.788;2023-06-14T07:39:36;24.70;1.00
48604;DHT22;32708;51.212;6.788;2023-06-14T07:42:02;24.50;1.00
48604;DHT22;32708;51.212;6.788;2023-06-14T07:44:29;24.20;1.00
48604;DHT22;32708;51.212;6.788;2023-06-14T07:46:58;24.40;1.00
48604;DHT22;32708;51.212;6.788;2023-06-14T07:49:27;24.70;1.00
48604;DHT22;32708;51.212;6.788;2023-06-14T07:51:53;24.20;1.00
48604;DHT22;32708;51.212;6.788;2023-06-14T07:54:19;24.60;1.00
48604;DHT22;32708;51.212;6.788;2023-06-14T07:56:50;25.00;1.00
48604;DHT22;32708;51.212;6.788;2023-06-14T07:59:17;24.80;1.00
48604;DHT22;32708;51.212;6.788;2023-06-14T08:01:43;25.10;1.00
48604;DHT22;32708;51.212;6.788;2023-06-14T08:04:13;25.40;1.00
48604;DHT22;32708;51.212;6.788;2023-06-14T08:06:40;25.60;1.00
48604;DHT22;32708;51.212;6.788;2023-06-14T08:09:10;25.30;1.00
48604;DHT22;32708;51.212;6.788;2023-06-14T08:11:37;25.10;1.00
48604;DHT22;32708;51.212;6.788;2023-06-14T08:14:03;25.30;1.00
48604;DHT22;32708;51.212;6.788;2023-06-14T08:16:29;25.20;1.00
48604;DHT22;32708;51.212;6.788;2023-06-14T08:18:56;25.30;1.00
48604;DHT22;32708;51.212;6.788;2023-06-14T08:21:22;25.40;1.00
48604;DHT22;32708;51.212;6.788;2023-06-14T08:23:48;25.60;1.00
48604;DHT22;32708;51.212;6.788;2023-06-14T08:26:14;25.60;1.00
48604;DHT22;32708;51.212;6.788;2023-06-14T08:28:40;25.00;1.00
48604;DHT22;32708;51.212;6.788;2023-06-14T08:31:08;25.60;1.00
48604;DHT22;32708;51.212;6.788;2023-06-14T08:33:34;25.80;1.00
48604;DHT22;32708;51.212;6.788;2023-06-14T08:36:00;25.30;1.00
48604;DHT22;32708;51.212;6.788;2023-06-14T08:38:26;25.30;1.00
48604;DHT22;32708;51.212;6.788;2023-06-14T08:40:57;24.80;1.00
48604;DHT22;32708;51.212;6.788;2023-06-14T08:43:24;24.50;1.00
48604;DHT22;32708;51.212;6.788;2023-06-14T08:45:58;24.90;1.00
48604;DHT22;32708;51.212;6.788;2023-06-14T08:48:30;25.00;1.00
48604;DHT22;32708;51.212;6.788;2023-06-14T08:51:00;25.10;1.00
48604;DHT22;32708;51.212;6.788;2023-06-14T08:53:33;25.50;1.00
48604;DHT22;32708;51.212;6.788;2023-06-14T08:56:02;25.20;1.00
48604;DHT22;32708;51.212;6.788;2023-06-14T08:58:34;24.70;1.00
48604;DHT22;32708;51.212;6.788;2023-06-14T09:01:02;25.30;1.00
48604;DHT22;32708;51.212;6.788;2023-06-14T09:03:28;25.60;1.00
48604;DHT22;32708;51.212;6.788;2023-06-14T09:05:59;25.50;1.00
48604;DHT22;32708;51.212;6.788;2023-06-14T09:08:26;25.30;1.00
48604;DHT22;32708;51.212;6.788;2023-06-14T09:10:57;25.40;1.00
48604;DHT22;32708;51.212;6.788;2023-06-14T09:13:23;25.20;1.00
48604;DHT22;32708;51.212;6.788;2023-06-14T09:15:50;25.30;1.00
48604;DHT22;32708;51.212;6.788;2023-06-14T09:18:17;25.50;1.00
48604;DHT22;32708;51.212;6.788;2023-06-14T09:20:43;25.20;1.00
48604;DHT22;32708;51.212;6.788;2023-06-14T09:23:09;25.70;1.00
48604;DHT22;32708;51.212;6.788;2023-06-14T09:25:42;25.10;1.00
48604;DHT22;32708;51.212;6.788;2023-06-14T09:28:09;24.70;1.00
48604;DHT22;32708;51.212;6.788;2023-06-14T09:30:37;24.50;1.00
48604;DHT22;32708;51.212;6.788;2023-06-14T09:33:04;24.60;1.00
48604;DHT22;32708;51.212;6.788;2023-06-14T09:35:33;24.90;1.00
48604;DHT22;32708;51.212;6.788;2023-06-14T09:37:59;25.10;1.00
48604;DHT22;32708;51.212;6.788;2023-06-14T09:40:26;24.80;1.00
48604;DHT22;32708;51.212;6.788;2023-06-14T09:42:53;24.70;1.00
48604;DHT22;32708;51.212;6.788;2023-06-14T09:45:20;24.80;1.00
48604;DHT22;32708;51.212;6.788;2023-06-14T09:47:49;24.90;1.00
48604;DHT22;32708;51.212;6.788;2023-06-14T09:50:16;24.10;1.00
48604;DHT22;32708;51.212;6.788;2023-06-14T09:52:44;24.40;1.00
48604;DHT22;32708;51.212;6.788;2023-06-14T09:55:19;24.60;1.00
48604;DHT22;32708;51.212;6.788;2023-06-14T09:57:45;24.00;1.00
48604;DHT22;32708;51.212;6.788;2023-06-14T10:00:15;24.30;1.00
48604;DHT22;32708;51.212;6.788;2023-06-14T10:02:52;24.40;1.00
48604;DHT22;32708;51.212;6.788;2023-06-14T10:05:27;24.20;1.00
48604;DHT22;32708;51.212;6.788;2023-06-14T10:08:08;24.40;1.00
48604;DHT22;32708;51.212;6.788;2023-06-14T10:10:35;24.00;1.00
48604;DHT22;32708;51.212;6.788;2023-06-14T10:13:04;23.80;1.00
48604;DHT22;32708;51.212;6.788;2023-06-14T10:16:22;24.20;1.00
48604;DHT22;32708;51.212;6.788;2023-06-14T10:18:48;24.40;1.00
48604;DHT22;32708;51.212;6.788;2023-06-14T10:24:16;24.00;1.00
48604;DHT22;32708;51.212;6.788;2023-06-14T10:26:57;23.40;1.00
48604;DHT22;32708;51.212;6.788;2023-06-14T10:29:24;23.40;1.00
48604;DHT22;32708;51.212;6.788;2023-06-14T10:31:56;23.60;1.00
48604;DHT22;32708;51.212;6.788;2023-06-14T10:34:28;24.00;1.00
48604;DHT22;32708;51.212;6.788;2023-06-14T10:37:04;24.20;1.00
48604;DHT22;32708;51.212;6.788;2023-06-14T10:39:45;24.60;1.00
48604;DHT22;32708;51.212;6.788;2023-06-14T10:42:12;24.80;1.00
48604;DHT22;32708;51.212;6.788;2023-06-14T10:44:46;25.00;1.00
48604;DHT22;32708;51.212;6.788;2023-06-14T10:47:23;24.90;1.00
48604;DHT22;32708;51.212;6.788;2023-06-14T10:49:55;25.10;1.00
48604;DHT22;32708;51.212;6.788;2023-06-14T10:52:32;25.00;1.00
48604;DHT22;32708;51.212;6.788;2023-06-14T10:55:11;24.90;1.00
48604;DHT22;32708;51.212;6.788;2023-06-14T10:57:49;24.90;1.00
48604;DHT22;32708;51.212;6.788;2023-06-14T11:00:19;24.80;1.00
48604;DHT22;32708;51.212;6.788;2023-06-14T11:03:44;24.80;1.00
48604;DHT22;32708;51.212;6.788;2023-06-14T11:06:22;24.90;1.00
48604;DHT22;32708;51.212;6.788;2023-06-14T11:12:32;25.00;1.00
48604;DHT22;32708;51.212;6.788;2023-06-14T11:15:01;24.70;1.00
48604;DHT22;32708;51.212;6.788;2023-06-14T11:17:28;24.70;1.00
48604;DHT22;32708;51.212;6.788;2023-06-14T11:20:12;24.60;1.00
48604;DHT22;32708;51.212;6.788;2023-06-14T11:22:49;25.10;1.00
48604;DHT22;32708;51.212;6.788;2023-06-14T11:25:18;25.10;1.00
48604;DHT22;32708;51.212;6.788;2023-06-14T11:27:45;25.40;1.00
48604;DHT22;32708;51.212;6.788;2023-06-14T11:30:13;25.10;1.00
48604;DHT22;32708;51.212;6.788;2023-06-14T11:32:39;24.90;1.00
48604;DHT22;32708;51.212;6.788;2023-06-14T11:35:07;24.80;1.00
48604;DHT22;32708;51.212;6.788;2023-06-14T11:37:36;25.60;1.00
48604;DHT22;32708;51.212;6.788;2023-06-14T11:40:09;25.60;1.00
48604;DHT22;32708;51.212;6.788;2023-06-14T11:42:39;25.30;1.00
48604;DHT22;32708;51.212;6.788;2023-06-14T11:45:11;25.80;1.00
48604;DHT22;32708;51.212;6.788;2023-06-14T11:47:39;25.90;1.00
48604;DHT22;32708;51.212;6.788;2023-06-14T11:50:08;25.80;1.00
48604;DHT22;32708;51.212;6.788;2023-06-14T11:52:37;26.70;1.00
48604;DHT22;32708;51.212;6.788;2023-06-14T11:55:04;26.60;1.00
48604;DHT22;32708;51.212;6.788;2023-06-14T11:57:34;26.90;1.00
48604;DHT22;32708;51.212;6.788;2023-06-14T12:00:07;26.50;1.00
48604;DHT22;32708;51.212;6.788;2023-06-14T12:02:38;25.90;1.00
48604;DHT22;32708;51.212;6.788;2023-06-14T12:05:07;25.80;1.00
48604;DHT22;32708;51.212;6.788;2023-06-14T12:07:39;25.80;1.00
48604;DHT22;32708;51.212;6.788;2023-06-14T12:10:09;25.40;1.00
48604;DHT22;32708;51.212;6.788;2023-06-14T12:12:38;25.80;1.00
48604;DHT22;32708;51.212;6.788;2023-06-14T12:15:07;26.10;1.00
48604;DHT22;32708;51.212;6.788;2023-06-14T12:17:36;26.30;1.00
48604;DHT22;32708;51.212;6.788;2023-06-14T12:20:12;26.20;1.00
48604;DHT22;32708;51.212;6.788;2023-06-14T12:22:52;26.20;1.00
48604;DHT22;32708;51.212;6.788;2023-06-14T12:25:30;26.10;1.00
48604;DHT22;32708;51.212;6.788;2023-06-14T12:28:06;25.80;1.00
48604;DHT22;32708;51.212;6.788;2023-06-14T12:30:35;25.60;1.00
48604;DHT22;32708;51.212;6.788;2023-06-14T12:33:06;25.80;1.00
48604;DHT22;32708;51.212;6.788;2023-06-14T12:35:33;26.10;1.00
48604;DHT22;32708;51.212;6.788;2023-06-14T12:38:01;26.20;1.00
48604;DHT22;32708;51.212;6.788;2023-06-14T12:40:27;26.60;1.00
48604;DHT22;32708;51.212;6.788;2023-06-14T12:42:53;27.20;1.00
48604;DHT22;32708;51.212;6.788;2023-06-14T12:45:19;27.00;1.00
48604;DHT22;32708;51.212;6.788;2023-06-14T12:47:46;27.10;1.00
48604;DHT22;32708;51.212;6.788;2023-06-14T12:50:12;27.00;1.00
48604;DHT22;32708;51.212;6.788;2023-06-14T12:52:38;26.40;1.00
48604;DHT22;32708;51.212;6.788;2023-06-14T12:55:05;26.30;1.00
48604;DHT22;32708;51.212;6.788;2023-06-14T12:57:32;26.50;1.00
48604;DHT22;32708;51.212;6.788;2023-06-14T13:00:03;26.60;1.00
48604;DHT22;32708;51.212;6.788;2023-06-14T13:02:31;26.20;1.00
48604;DHT22;32708;51.212;6.788;2023-06-14T13:04:57;26.50;1.00
48604;DHT22;32708;51.212;6.788;2023-06-14T13:07:24;26.50;1.00
48604;DHT22;32708;51.212;6.788;2023-06-14T13:09:50;27.20;1.00
48604;DHT22;32708;51.212;6.788;2023-06-14T13:12:17;27.00;1.00
48604;DHT22;32708;51.212;6.788;2023-06-14T13:14:44;27.00;1.00
48604;DHT22;32708;51.212;6.788;2023-06-14T13:17:10;27.30;1.00
48604;DHT22;32708;51.212;6.788;2023-06-14T13:19:37;27.60;1.00
48604;DHT22;32708;51.212;6.788;2023-06-14T13:22:03;27.40;1.00
48604;DHT22;32708;51.212;6.788;2023-06-14T13:24:30;26.90;1.00
48604;DHT22;32708;51.212;6.788;2023-06-14T13:26:57;26.60;1.00
48604;DHT22;32708;51.212;6.788;2023-06-14T13:29:24;26.90;1.00
48604;DHT22;32708;51.212;6.788;2023-06-14T13:31:50;26.30;1.00
48604;DHT22;32708;51.212;6.788;2023-06-14T13:34:17;26.60;1.00
48604;DHT22;32708;51.212;6.788;2023-06-14T13:36:43;26.30;1.00
48604;DHT22;32708;51.212;6.788;2023-06-14T13:39:09;26.30;1.00
48604;DHT22;32708;51.212;6.788;2023-06-14T13:41:36;26.10;1.00
48604;DHT22;32708;51.212;6.788;2023-06-14T13:44:03;26.20;1.00
48604;DHT22;32708;51.212;6.788;2023-06-14T13:46:30;26.20;1.00
48604;DHT22;32708;51.212;6.788;2023-06-14T13:48:57;26.40;1.00
48604;DHT22;32708;51.212;6.788;2023-06-14T13:51:23;25.90;1.00
48604;DHT22;32708;51.212;6.788;2023-06-14T13:53:50;25.80;1.00
48604;DHT22;32708;51.212;6.788;2023-06-14T13:56:17;26.00;1.00
48604;DHT22;32708;51.212;6.788;2023-06-14T13:58:43;27.10;1.00
48604;DHT22;32708;51.212;6.788;2023-06-14T14:01:09;26.00;1.00
48604;DHT22;32708;51.212;6.788;2023-06-14T14:03:37;25.80;1.00
48604;DHT22;32708;51.212;6.788;2023-06-14T14:06:04;25.70;1.00
48604;DHT22;32708;51.212;6.788;2023-06-14T14:08:31;26.00;1.00
48604;DHT22;32708;51.212;6.788;2023-06-14T14:10:57;26.00;1.00
48604;DHT22;32708;51.212;6.788;2023-06-14T14:13:24;26.10;1.00
48604;DHT22;32708;51.212;6.788;2023-06-14T14:15:50;25.90;1.00
48604;DHT22;32708;51.212;6.788;2023-06-14T14:18:17;26.10;1.00
48604;DHT22;32708;51.212;6.788;2023-06-14T14:20:43;26.20;1.00
48604;DHT22;32708;51.212;6.788;2023-06-14T14:23:13;26.10;1.00
48604;DHT22;32708;51.212;6.788;2023-06-14T14:25:39;26.40;1.00
48604;DHT22;32708;51.212;6.788;2023-06-14T14:28:05;26.40;1.00
48604;DHT22;32708;51.212;6.788;2023-06-14T14:30:31;26.70;1.00
48604;DHT22;32708;51.212;6.788;2023-06-14T14:32:58;26.60;1.00
48604;DHT22;32708;51.212;6.788;2023-06-14T14:35:24;26.30;1.00
48604;DHT22;32708;51.212;6.788;2023-06-14T14:37:56;26.30;1.00
48604;DHT22;32708;51.212;6.788;2023-06-14T14:40:22;26.60;1.00
48604;DHT22;32708;51.212;6.788;2023-06-14T14:42:49;26.60;1.00
48604;DHT22;32708;51.212;6.788;2023-06-14T14:45:15;26.30;1.00
48604;DHT22;32708;51.212;6.788;2023-06-14T14:47:41;26.50;1.00
48604;DHT22;32708;51.212;6.788;2023-06-14T14:50:07;26.40;1.00
48604;DHT22;32708;51.212;6.788;2023-06-14T14:52:35;25.90;1.00
48604;DHT22;32708;51.212;6.788;2023-06-14T14:55:02;26.00;1.00
48604;DHT22;32708;51.212;6.788;2023-06-14T14:57:28;26.20;1.00
48604;DHT22;32708;51.212;6.788;2023-06-14T14:59:55;26.40;1.00
48604;DHT22;32708;51.212;6.788;2023-06-14T15:02:21;26.30;1.00
48604;DHT22;32708;51.212;6.788;2023-06-14T15:04:49;26.00;1.00
48604;DHT22;32708;51.212;6.788;2023-06-14T15:07:15;26.30;1.00
48604;DHT22;32708;51.212;6.788;2023-06-14T15:09:42;26.20;1.00
48604;DHT22;32708;51.212;6.788;2023-06-14T15:12:09;26.20;1.00
48604;DHT22;32708;51.212;6.788;2023-06-14T15:14:36;26.30;1.00
48604;DHT22;32708;51.212;6.788;2023-06-14T15:17:03;26.30;1.00
48604;DHT22;32708;51.212;6.788;2023-06-14T15:19:29;26.30;1.00
48604;DHT22;32708;51.212;6.788;2023-06-14T15:21:55;26.10;1.00
48604;DHT22;32708;51.212;6.788;2023-06-14T15:24:22;26.10;1.00
48604;DHT22;32708;51.212;6.788;2023-06-14T15:26:49;26.10;1.00
48604;DHT22;32708;51.212;6.788;2023-06-14T15:29:16;26.00;1.00
48604;DHT22;32708;51.212;6.788;2023-06-14T15:31:42;26.20;1.00
48604;DHT22;32708;51.212;6.788;2023-06-14T15:34:08;26.10;1.00
48604;DHT22;32708;51.212;6.788;2023-06-14T15:36:34;26.00;1.00
48604;DHT22;32708;51.212;6.788;2023-06-14T15:39:00;26.10;1.00
48604;DHT22;32708;51.212;6.788;2023-06-14T15:41:27;25.90;1.00
48604;DHT22;32708;51.212;6.788;2023-06-14T15:43:53;25.70;1.00
48604;DHT22;32708;51.212;6.788;2023-06-14T15:46:21;25.80;1.00
48604;DHT22;32708;51.212;6.788;2023-06-14T15:48:48;25.80;1.00
48604;DHT22;32708;51.212;6.788;2023-06-14T15:51:15;26.00;1.00
48604;DHT22;32708;51.212;6.788;2023-06-14T15:53:41;25.90;1.00
48604;DHT22;32708;51.212;6.788;2023-06-14T15:56:07;25.90;1.00
48604;DHT22;32708;51.212;6.788;2023-06-14T15:58:33;25.80;1.00
48604;DHT22;32708;51.212;6.788;2023-06-14T16:01:00;25.70;1.00